Time;durP1;ratioP1;P1;durP2;ratioP2;P2;SDS_P1;SDS_P2;PMS_P1;PMS_P2;Temp;Humidity;BMP_temperature;BMP_pressure;BME280_temperature;BME280_humidity;BME280_pressure;Samples;Min_cycle;Max_cycle;Signal;HPM_P1;HPM_P2
2021/09/28 00:02:01;;;;;;;11.75;8.40;;;;;;;14.55;98.73;100558.31;5008903;28;20159;-76
2021/09/28 00:04:47;;;;;;;9.75;6.53;;;;;;;14.48;99.12;100565.41;5013268;28;20049;-77
2021/09/28 00:07:32;;;;;;;11.13;7.45;;;;;;;14.41;99.44;100562.44;5011097;28;20608;-77
2021/09/28 00:10:18;;;;;;;15.13;9.50;;;;;;;14.34;99.47;100578.47;5013667;28;20056;-79
2021/09/28 00:13:04;;;;;;;13.13;8.35;;;;;;;14.39;99.85;100587.94;5013946;28;20185;-79
2021/09/28 00:15:49;;;;;;;16.13;9.13;;;;;;;14.32;99.82;100587.72;5012581;28;20077;-77
2021/09/28 00:18:36;;;;;;;12.88;8.18;;;;;;;14.34;99.94;100588.41;5006216;28;20056;-79
2021/09/28 00:21:21;;;;;;;15.85;9.25;;;;;;;14.38;99.60;100588.94;5014340;28;20642;-77
2021/09/28 00:24:07;;;;;;;16.65;9.50;;;;;;;14.33;99.64;100587.56;5013049;28;20065;-79
2021/09/28 00:26:52;;;;;;;12.70;8.23;;;;;;;14.32;99.63;100598.50;5004255;28;20416;-80
2021/09/28 00:29:40;;;;;;;12.30;7.70;;;;;;;14.39;99.39;100593.31;5008386;28;20065;-78
2021/09/28 00:32:26;;;;;;;13.85;7.47;;;;;;;14.36;99.46;100605.31;5011662;28;20068;-79
2021/09/28 00:35:12;;;;;;;11.60;7.43;;;;;;;14.33;99.09;100598.38;5004114;28;20061;-80
2021/09/28 00:37:58;;;;;;;10.95;6.78;;;;;;;14.32;99.16;100599.38;5009816;28;20069;-79
2021/09/28 00:40:43;;;;;;;14.82;9.23;;;;;;;14.32;99.10;100598.50;5004871;28;20052;-79
2021/09/28 00:43:46;;;;;;;13.00;7.95;;;;;;;14.42;98.67;100609.19;5002974;28;20045;-77
2021/09/28 00:46:32;;;;;;;10.15;5.80;;;;;;;14.60;96.18;100608.16;5002168;28;20048;-77
2021/09/28 00:49:18;;;;;;;6.43;4.88;;;;;;;14.94;92.82;100607.31;5010267;28;20056;-77
2021/09/28 00:52:06;;;;;;;9.20;5.28;;;;;;;15.28;90.14;100609.09;5009273;28;20069;-79
2021/09/28 00:54:51;;;;;;;6.93;5.05;;;;;;;15.68;87.78;100611.03;5002801;28;20599;-78
2021/09/28 00:57:36;;;;;;;7.03;4.20;;;;;;;15.57;88.27;100611.31;5008866;28;20066;-79
2021/09/28 01:00:21;;;;;;;8.93;4.97;;;;;;;15.78;86.68;100612.56;5009206;28;20141;-78
2021/09/28 01:03:08;;;;;;;6.72;4.50;;;;;;;15.94;85.68;100619.81;5010736;28;20104;-76
2021/09/28 01:05:53;;;;;;;6.82;4.70;;;;;;;16.09;84.54;100617.28;5001861;28;20052;-79
2021/09/28 01:08:39;;;;;;;11.07;4.63;;;;;;;16.16;84.22;100612.88;5010705;28;20077;-79
2021/09/28 01:11:24;;;;;;;9.07;4.50;;;;;;;16.04;84.67;100619.66;5013013;28;20068;-80
2021/09/28 01:14:11;;;;;;;7.03;3.90;;;;;;;16.11;84.27;100617.13;5011562;28;20124;-79
2021/09/28 01:16:57;;;;;;;6.47;4.90;;;;;;;16.24;83.39;100620.16;5006238;28;20056;-79
2021/09/28 01:19:42;;;;;;;6.32;4.38;;;;;;;15.99;84.80;100622.88;5011563;28;20124;-79
2021/09/28 01:22:29;;;;;;;8.35;3.92;;;;;;;15.76;86.28;100628.13;5011415;28;20067;-77
2021/09/28 01:25:14;;;;;;;6.47;4.20;;;;;;;15.73;86.30;100623.03;5011574;28;20273;-77
2021/09/28 01:27:59;;;;;;;6.22;4.65;;;;;;;16.01;85.28;100638.94;5008636;28;20053;-78
2021/09/28 01:30:45;;;;;;;6.97;4.53;;;;;;;16.03;84.98;100639.63;5008857;28;20467;-80
2021/09/28 01:33:30;;;;;;;8.02;4.65;;;;;;;16.04;84.93;100639.44;5012479;28;20311;-77
2021/09/28 01:36:15;;;;;;;8.18;4.35;;;;;;;16.02;84.82;100649.59;5009772;28;20550;-79
2021/09/28 01:39:02;;;;;;;8.35;4.45;;;;;;;16.02;84.91;100649.59;4996233;28;20072;-78
2021/09/28 01:41:47;;;;;;;7.53;4.22;;;;;;;16.04;84.64;100658.41;5011632;28;20085;-77
2021/09/28 01:44:34;;;;;;;6.35;4.40;;;;;;;15.94;85.19;100654.16;5012705;28;20109;-79
2021/09/28 01:47:19;;;;;;;7.55;4.70;;;;;;;16.12;85.02;100660.28;5011589;28;20069;-77
2021/09/28 01:50:05;;;;;;;8.07;4.97;;;;;;;15.89;85.59;100653.84;5011795;28;20069;-80
2021/09/28 01:52:50;;;;;;;;;;;;;;;16.01;85.47;100658.75;5003235;28;20197;-76
2021/09/28 01:55:36;;;;;;;7.80;4.75;;;;;;;15.97;85.69;100654.66;5007292;28;19945;-78
2021/09/28 01:58:22;;;;;;;7.65;4.50;;;;;;;15.92;86.11;100659.75;5011335;28;20061;-77
2021/09/28 02:01:07;;;;;;;8.82;3.72;;;;;;;15.75;86.91;100671.59;5006094;28;20056;-76
2021/09/28 02:03:52;;;;;;;5.57;3.63;;;;;;;15.68;87.21;100666.00;5013135;28;20559;-78
2021/09/28 02:06:39;;;;;;;7.10;3.50;;;;;;;15.54;88.05;100676.59;5014872;28;20506;-78
2021/09/28 02:09:24;;;;;;;5.32;3.33;;;;;;;15.59;87.88;100674.22;5007985;28;20053;-78
2021/09/28 02:12:11;;;;;;;7.18;3.25;;;;;;;15.54;88.29;100672.03;5015167;28;20134;-79
2021/09/28 02:14:56;;;;;;;7.82;3.15;;;;;;;15.52;88.29;100682.19;5011431;28;20263;-75
2021/09/28 02:17:42;;;;;;;7.57;3.30;;;;;;;15.55;88.05;100676.41;5011239;28;20571;-78
2021/09/28 02:20:27;;;;;;;5.57;2.83;;;;;;;15.46;88.41;100677.41;5183052;23;20378;-66
2021/09/28 02:23:12;;;;;;;8.80;2.92;;;;;;;15.47;87.78;100676.41;4989005;28;20594;-64
2021/09/28 02:25:58;;;;;;;4.30;2.42;;;;;;;15.35;88.92;100683.97;4998795;28;20420;-64
2021/09/28 02:28:44;;;;;;;7.30;2.72;;;;;;;15.25;88.37;100677.84;5000522;28;20112;-65
2021/09/28 02:31:29;;;;;;;6.28;2.60;;;;;;;15.14;89.13;100680.84;4994393;28;20057;-64
2021/09/28 02:34:14;;;;;;;4.70;2.38;;;;;;;15.18;88.51;100684.94;5011359;23;20624;-64
2021/09/28 02:36:59;;;;;;;4.13;1.98;;;;;;;15.01;89.20;100677.75;4993093;28;20402;-63
2021/09/28 02:39:44;;;;;;;4.03;1.63;;;;;;;14.98;88.59;100681.63;5002667;28;20535;-62
2021/09/28 02:42:29;;;;;;;3.72;2.28;;;;;;;14.96;88.19;100688.22;5007382;28;20511;-63
2021/09/28 02:45:16;;;;;;;3.78;1.95;;;;;;;14.87;88.57;100685.47;4990129;28;20126;-64
2021/09/28 02:48:01;;;;;;;4.85;1.60;;;;;;;14.90;87.98;100682.44;4991567;28;20061;-63
2021/09/28 02:50:47;;;;;;;2.78;1.50;;;;;;;14.62;89.17;100692.59;4991874;28;20428;-62
2021/09/28 02:53:32;;;;;;;4.28;1.48;;;;;;;14.49;89.52;100702.13;4985479;28;20068;-64
2021/09/28 02:56:17;;;;;;;4.82;1.50;;;;;;;14.57;89.47;100704.88;4986572;28;20062;-62
2021/09/28 02:59:02;;;;;;;4.57;1.27;;;;;;;14.59;88.75;100708.28;4992707;28;20151;-62
2021/09/28 03:01:48;;;;;;;2.20;1.23;;;;;;;14.46;89.20;100715.94;4988639;28;20054;-63
2021/09/28 03:04:34;;;;;;;2.17;1.40;;;;;;;14.40;88.64;100713.84;4987582;28;20066;-63
2021/09/28 03:07:19;;;;;;;2.65;1.40;;;;;;;14.20;89.97;100711.31;4987806;28;20065;-63
2021/09/28 03:10:05;;;;;;;3.78;1.38;;;;;;;14.40;88.16;100705.72;4985873;28;20194;-63
2021/09/28 03:12:50;;;;;;;1.65;0.95;;;;;;;14.32;88.53;100707.38;4982119;28;20057;-65
2021/09/28 03:15:35;;;;;;;3.00;1.00;;;;;;;14.12;89.48;100726.63;4991756;28;20484;-64
2021/09/28 03:18:21;;;;;;;2.25;0.93;;;;;;;14.27;87.71;100725.88;4989440;28;20530;-63
2021/09/28 03:21:06;;;;;;;4.00;1.05;;;;;;;14.26;87.64;100729.59;4990784;28;20053;-64
2021/09/28 03:23:52;;;;;;;2.45;1.23;;;;;;;14.19;88.09;100717.72;4989750;28;20140;-63
2021/09/28 03:26:38;;;;;;;3.55;0.88;;;;;;;14.58;85.89;100718.22;4989489;28;20121;-63
2021/09/28 03:29:23;;;;;;;4.38;1.10;;;;;;;14.41;86.54;100720.94;4987765;28;20523;-65
2021/09/28 03:32:10;;;;;;;3.67;1.10;;;;;;;14.25;87.46;100722.50;4985617;28;20132;-65
2021/09/28 03:34:57;;;;;;;1.63;0.93;;;;;;;14.20;87.88;100732.91;4982403;28;20058;-64
2021/09/28 03:37:44;;;;;;;3.05;1.10;;;;;;;14.51;86.57;100732.53;4989454;28;20072;-63
2021/09/28 03:40:30;;;;;;;3.75;0.90;;;;;;;14.54;86.53;100729.50;4990775;28;20148;-63
2021/09/28 03:43:16;;;;;;;2.65;1.38;;;;;;;14.44;86.84;100732.28;4989492;28;20049;-63
2021/09/28 03:46:01;;;;;;;4.25;1.20;;;;;;;14.54;85.89;100737.59;4990432;28;20053;-63
2021/09/28 03:48:46;;;;;;;3.08;0.75;;;;;;;14.34;86.98;100740.47;4992090;28;20104;-63
2021/09/28 03:51:32;;;;;;;1.80;0.95;;;;;;;14.32;87.47;100742.50;4989745;28;20078;-63
2021/09/28 03:54:17;;;;;;;3.38;1.23;;;;;;;14.18;87.38;100742.16;4987304;28;20061;-61
2021/09/28 03:57:03;;;;;;;3.25;0.80;;;;;;;14.07;88.25;100762.13;4990760;28;20077;-63
2021/09/28 03:59:48;;;;;;;2.85;0.90;;;;;;;14.25;86.42;100751.34;4991624;28;20057;-64
2021/09/28 04:02:33;;;;;;;3.28;0.90;;;;;;;14.26;85.95;100764.69;4988675;28;20557;-63
2021/09/28 04:05:18;;;;;;;2.80;0.80;;;;;;;14.18;85.67;100777.25;4990161;28;20057;-62
2021/09/28 04:08:05;;;;;;;2.00;0.77;;;;;;;14.06;86.35;100782.03;4985997;28;20161;-63
2021/09/28 04:10:50;;;;;;;2.20;0.70;;;;;;;13.88;87.71;100781.19;4989067;28;20068;-63
2021/09/28 04:13:36;;;;;;;2.50;0.80;;;;;;;13.92;87.10;100787.97;4989523;28;20065;-62
2021/09/28 04:16:21;;;;;;;3.22;1.02;;;;;;;13.85;88.10;100792.25;4980255;28;20420;-63
2021/09/28 04:19:06;;;;;;;3.03;1.10;;;;;;;13.72;88.41;100796.19;4988776;28;20053;-63
2021/09/28 04:21:51;;;;;;;2.75;0.80;;;;;;;13.49;90.03;100789.50;4989593;28;20308;-62
2021/09/28 04:24:38;;;;;;;3.85;1.15;;;;;;;13.53;90.65;100790.91;4990019;28;20050;-64
2021/09/28 04:27:23;;;;;;;6.88;1.23;;;;;;;13.39;91.85;100796.81;4985505;28;20132;-62
2021/09/28 04:30:10;;;;;;;2.70;1.20;;;;;;;13.14;92.64;100799.16;4985669;28;20057;-63
2021/09/28 04:32:56;;;;;;;2.80;1.30;;;;;;;13.17;92.58;100798.84;4983472;28;20076;-61
2021/09/28 04:35:41;;;;;;;5.60;1.33;;;;;;;13.28;92.20;100799.69;4983027;28;20128;-63
2021/09/28 04:38:26;;;;;;;2.93;1.50;;;;;;;13.48;91.61;100803.97;4980345;28;20065;-63
2021/09/28 04:41:12;;;;;;;2.40;1.40;;;;;;;13.31;92.80;100812.88;4986951;28;20112;-63
2021/09/28 04:43:58;;;;;;;2.05;1.23;;;;;;;13.22;93.27;100811.91;4989803;28;21784;-63
2021/09/28 04:46:44;;;;;;;4.20;1.50;;;;;;;13.22;94.05;100816.44;4990615;28;20072;-61
2021/09/28 04:49:30;;;;;;;3.47;1.52;;;;;;;13.10;94.05;100813.03;4980359;28;20479;-62
2021/09/28 04:52:16;;;;;;;5.75;1.90;;;;;;;13.08;94.50;100826.66;4988771;28;20177;-62
2021/09/28 04:55:01;;;;;;;3.72;1.60;;;;;;;13.13;93.50;100827.06;4967096;28;20054;-63
2021/09/28 04:57:48;;;;;;;3.50;1.77;;;;;;;12.99;94.58;100826.69;4974007;28;20053;-61
2021/09/28 05:00:33;;;;;;;4.05;2.28;;;;;;;13.18;93.82;100823.94;4985874;28;20523;-62
2021/09/28 05:03:20;;;;;;;13.80;3.60;;;;;;;13.12;94.31;100828.06;4988193;28;20065;-62
2021/09/28 05:06:05;;;;;;;;;;;;;;;12.97;95.86;100834.91;4987174;28;20050;-64
2021/09/28 05:08:51;;;;;;;9.77;2.35;;;;;;;13.19;94.00;100833.75;4984762;28;19948;-63
2021/09/28 05:11:36;;;;;;;5.20;2.00;;;;;;;13.13;94.40;100831.59;4972639;28;20058;-62
2021/09/28 05:14:23;;;;;;;4.45;2.78;;;;;;;13.06;94.53;100836.75;4986809;28;20420;-63
2021/09/28 05:17:08;;;;;;;5.97;2.45;;;;;;;13.04;95.32;100835.19;4973082;28;20065;-60
2021/09/28 05:19:53;;;;;;;4.95;1.92;;;;;;;13.03;94.95;100831.66;4989965;28;20053;-62
2021/09/28 05:22:38;;;;;;;5.70;2.10;;;;;;;13.15;92.93;100827.78;4988202;28;20061;-63
2021/09/28 05:25:25;;;;;;;4.23;2.13;;;;;;;13.23;92.89;100827.06;4980412;28;20058;-59
2021/09/28 05:28:11;;;;;;;3.67;1.88;;;;;;;13.11;94.30;100839.00;4979811;28;20308;-61
2021/09/28 05:30:58;;;;;;;4.50;1.63;;;;;;;13.04;94.23;100836.03;4973540;28;20053;-63
2021/09/28 05:33:43;;;;;;;4.72;2.22;;;;;;;13.11;93.71;100839.84;4965429;28;20058;-62
2021/09/28 05:36:28;;;;;;;4.43;2.25;;;;;;;13.16;93.16;100848.34;4968573;28;20141;-62
2021/09/28 05:39:13;;;;;;;7.30;2.38;;;;;;;13.33;94.75;100859.38;4972150;28;20624;-61
2021/09/28 05:41:58;;;;;;;5.47;2.40;;;;;;;13.25;93.61;100868.19;4969180;28;20107;-61
2021/09/28 05:44:44;;;;;;;4.45;2.55;;;;;;;13.36;92.46;100867.19;4972909;28;20309;-63
2021/09/28 05:47:30;;;;;;;5.43;1.70;;;;;;;13.24;93.38;100866.50;4971695;28;20513;-62
2021/09/28 05:50:16;;;;;;;5.55;2.42;;;;;;;13.21;92.62;100872.19;4965907;28;20073;-62
2021/09/28 05:53:06;;;;;;;4.93;2.10;;;;;;;13.20;92.56;100877.72;4973230;28;20073;-63
2021/09/28 05:55:51;;;;;;;6.75;2.22;;;;;;;13.01;94.01;100876.72;4969762;28;20548;-62
2021/09/28 05:58:36;;;;;;;8.13;2.75;;;;;;;13.40;92.11;100882.09;4973202;28;20511;-61
2021/09/28 06:01:21;;;;;;;6.22;2.63;;;;;;;13.41;91.40;100886.47;4980346;28;20511;-63
2021/09/28 06:04:08;;;;;;;6.57;2.80;;;;;;;13.39;92.04;100877.69;4964142;28;20049;-62
2021/09/28 06:06:53;;;;;;;8.75;2.60;;;;;;;13.36;92.83;100880.66;4973395;28;20053;-64
2021/09/28 06:09:40;;;;;;;8.50;2.10;;;;;;;13.27;93.91;100887.78;4969981;28;20062;-63
2021/09/28 06:12:25;;;;;;;6.97;3.25;;;;;;;13.45;92.42;100890.56;4973046;28;20198;-62
2021/09/28 06:15:11;;;;;;;6.80;2.80;;;;;;;13.46;92.75;100886.88;4973175;28;20101;-62
2021/09/28 06:17:56;;;;;;;;;;;;;;;13.55;91.42;100886.00;4972700;28;20164;-63
2021/09/28 06:20:43;;;;;;;7.32;2.78;;;;;;;13.64;90.65;100893.22;4978329;28;20238;-62
2021/09/28 06:23:28;;;;;;;8.55;2.55;;;;;;;13.59;90.87;100900.03;4980472;28;20112;-62
2021/09/28 06:26:13;;;;;;;6.70;2.28;;;;;;;13.55;91.42;100896.78;4978194;28;20058;-62
2021/09/28 06:28:58;;;;;;;10.10;3.17;;;;;;;13.56;90.74;100898.47;4975418;28;20062;-63
2021/09/28 06:31:43;;;;;;;8.88;3.13;;;;;;;13.49;91.16;100900.06;4973163;28;20201;-63
2021/09/28 06:34:29;;;;;;;6.32;2.88;;;;;;;13.55;91.27;100910.25;4973176;28;20076;-63
2021/09/28 06:37:15;;;;;;;9.82;3.53;;;;;;;13.60;91.02;100916.06;4973053;28;20137;-62
2021/09/28 06:40:01;;;;;;;9.45;2.90;;;;;;;13.61;91.20;100916.91;4976883;28;20144;-62
2021/09/28 06:42:46;;;;;;;8.25;2.90;;;;;;;13.56;91.27;100921.91;4973780;28;20058;-62
2021/09/28 06:45:31;;;;;;;5.82;2.63;;;;;;;13.62;90.62;100929.41;4978099;28;20085;-64
2021/09/28 06:48:18;;;;;;;8.32;2.35;;;;;;;13.50;92.01;100936.84;4981109;28;20056;-65
2021/09/28 06:51:03;;;;;;;7.10;2.47;;;;;;;13.66;89.82;100937.06;4973661;28;20413;-63
2021/09/28 06:53:50;;;;;;;10.60;2.47;;;;;;;13.57;89.99;100939.78;4978557;28;20548;-63
2021/09/28 06:56:35;;;;;;;5.72;2.53;;;;;;;13.61;90.31;100950.13;4975392;28;20308;-61
2021/09/28 06:59:20;;;;;;;10.82;2.67;;;;;;;13.73;89.28;100948.09;4973510;28;20265;-62
2021/09/28 07:02:05;;;;;;;9.95;2.75;;;;;;;13.74;88.76;100942.56;4982259;28;20101;-62
2021/09/28 07:04:50;;;;;;;7.40;3.13;;;;;;;13.76;89.41;100947.81;4980616;28;20058;-61
2021/09/28 07:07:35;;;;;;;6.68;3.28;;;;;;;13.83;89.22;100948.06;4973403;28;20054;-63
2021/09/28 07:10:22;;;;;;;8.45;2.17;;;;;;;13.97;88.59;100936.78;4974353;28;20058;-61
2021/09/28 07:13:07;;;;;;;7.28;2.70;;;;;;;14.22;86.20;100941.50;4972769;28;20053;-62
2021/09/28 07:15:52;;;;;;;6.68;2.78;;;;;;;14.19;86.40;100952.56;4980347;28;20272;-62
2021/09/28 07:18:37;;;;;;;6.75;2.58;;;;;;;14.17;87.72;100957.28;4975454;28;20126;-63
2021/09/28 07:21:22;;;;;;;8.13;2.78;;;;;;;14.17;88.25;100964.53;4978347;28;20053;-62
2021/09/28 07:24:07;;;;;;;13.95;2.78;;;;;;;14.13;87.49;100969.38;4980617;28;20199;-62
2021/09/28 07:26:53;;;;;;;8.57;3.10;;;;;;;13.90;88.57;100968.06;4975804;28;20049;-62
2021/09/28 07:29:38;;;;;;;;;;;;;;;13.95;88.34;100973.84;4976428;28;20061;-61
2021/09/28 07:32:23;;;;;;;5.65;2.28;;;;;;;13.92;88.10;100969.63;4974484;28;19937;-61
2021/09/28 07:35:09;;;;;;;8.88;2.95;;;;;;;14.02;87.96;100964.19;4972746;28;20069;-61
2021/09/28 07:37:54;;;;;;;6.40;2.58;;;;;;;14.14;87.87;100972.94;4970583;28;20189;-62
2021/09/28 07:40:40;;;;;;;7.22;3.20;;;;;;;14.22;88.14;100976.59;4983373;28;20057;-61
2021/09/28 07:43:26;;;;;;;7.97;2.90;;;;;;;14.47;86.29;100974.22;4977848;28;20116;-62
2021/09/28 07:46:11;;;;;;;;;;;;;;;14.52;86.21;100986.25;4971786;28;20116;-62
2021/09/28 07:48:56;;;;;;;9.73;2.72;;;;;;;14.56;85.18;100990.38;4966497;28;19929;-61
2021/09/28 07:51:41;;;;;;;6.30;2.40;;;;;;;14.46;86.22;100994.13;4972985;28;20062;-62
2021/09/28 07:54:26;;;;;;;5.13;2.58;;;;;;;14.50;85.28;100998.22;4979712;28;20058;-63
2021/09/28 07:57:11;;;;;;;8.33;2.93;;;;;;;14.55;84.12;100998.59;4972075;28;20136;-61
2021/09/28 07:59:58;;;;;;;5.10;2.20;;;;;;;14.64;83.50;101000.41;4973673;28;20128;-61
2021/09/28 08:02:43;;;;;;;11.77;2.90;;;;;;;14.51;84.47;100997.22;4976324;28;20057;-61
2021/09/28 08:05:28;;;;;;;6.25;2.58;;;;;;;14.56;83.28;101009.28;4977334;28;20057;-61
2021/09/28 08:08:13;;;;;;;12.68;3.10;;;;;;;14.58;83.06;101006.41;4976083;28;20082;-64
2021/09/28 08:10:58;;;;;;;10.02;2.83;;;;;;;14.63;82.67;101006.81;4974245;28;20182;-61
2021/09/28 08:13:43;;;;;;;7.55;2.85;;;;;;;14.71;82.49;101008.75;4972377;28;20077;-63
2021/09/28 08:16:29;;;;;;;6.68;2.60;;;;;;;14.80;82.92;101010.50;4977586;28;20053;-62
2021/09/28 08:19:14;;;;;;;17.63;3.20;;;;;;;14.80;83.59;101024.03;4973857;28;20519;-61
2021/09/28 08:22:00;;;;;;;8.90;2.65;;;;;;;14.88;83.48;101024.97;4974916;28;20180;-60
2021/09/28 08:24:48;;;;;;;7.13;3.38;;;;;;;14.95;82.18;101027.06;4973916;28;20058;-61
2021/09/28 08:30:36;;;;;;;8.02;2.45;;;;;;;14.77;82.34;101014.38;4970298;28;20113;-63
2021/09/28 08:33:22;;;;;;;10.13;2.65;;;;;;;14.96;81.63;101017.97;4986462;28;20085;-61
2021/09/28 08:38:44;;;;;;;11.65;3.20;;;;;;;14.79;82.27;101028.59;4948572;28;20043;-59
2021/09/28 08:41:29;;;;;;;12.50;2.85;;;;;;;14.80;81.46;101024.91;4947268;29;20063;-62
2021/09/28 08:44:16;;;;;;;9.25;2.55;;;;;;;14.97;81.42;101030.47;4943374;28;20058;-61
2021/09/28 08:47:01;;;;;;;9.65;2.97;;;;;;;15.00;82.30;101032.84;4936307;29;20046;-61
2021/09/28 08:49:47;;;;;;;6.95;2.67;;;;;;;15.16;81.15;101035.75;4939893;29;20062;-61
2021/09/28 08:52:32;;;;;;;8.32;2.92;;;;;;;15.29;79.95;101038.91;4932827;29;20058;-62
2021/09/28 08:55:18;;;;;;;13.23;2.47;;;;;;;15.39;78.93;101036.09;4933099;29;20207;-61
2021/09/28 08:58:15;;;;;;;6.60;2.42;;;;;;;15.47;79.34;101037.00;4926024;29;20055;-63
2021/09/28 09:01:05;;;;;;;10.02;2.50;;;;;;;15.64;78.72;101039.91;4932758;29;20088;-62
2021/09/28 09:03:50;;;;;;;10.73;2.70;;;;;;;15.76;78.88;101033.22;4931697;29;20727;-62
2021/09/28 09:06:37;;;;;;;6.07;2.95;;;;;;;15.99;76.63;101031.69;4929843;29;21430;-62
2021/09/28 09:09:23;;;;;;;7.15;3.97;;;;;;;16.02;76.44;101027.81;4930041;29;20150;-60
2021/09/28 09:12:08;;;;;;;7.07;2.88;;;;;;;16.00;75.64;101035.25;4931091;29;20173;-61
2021/09/28 09:14:53;;;;;;;5.85;2.17;;;;;;;16.00;75.44;101027.13;4930322;29;20099;-61
2021/09/28 09:17:38;;;;;;;6.90;2.50;;;;;;;16.03;75.60;101029.50;4932713;29;20645;-59
2021/09/28 09:20:35;;;;;;;6.80;2.00;;;;;;;16.19;74.51;101026.00;4930315;29;20057;-60
2021/09/28 09:23:26;;;;;;;7.68;1.80;;;;;;;16.34;74.80;101021.72;4931754;29;20062;-61
2021/09/28 09:26:14;;;;;;;8.68;2.63;;;;;;;16.27;72.32;101026.06;4930386;29;20286;-61
2021/09/28 09:29:00;;;;;;;10.30;2.35;;;;;;;16.23;73.41;101025.56;4924586;29;20058;-60
2021/09/28 09:31:54;;;;;;;7.38;2.45;;;;;;;16.17;74.23;101031.59;4929157;29;21074;-60
2021/09/28 09:34:39;;;;;;;7.13;2.88;;;;;;;16.30;73.59;101029.28;4923122;29;20069;-61
2021/09/28 09:37:37;;;;;;;12.25;2.38;;;;;;;16.41;73.44;101028.16;4929328;29;20179;-62
2021/09/28 09:40:38;;;;;;;6.20;2.10;;;;;;;16.72;70.12;101033.06;4928757;29;20071;-62
2021/09/28 09:43:31;;;;;;;8.32;2.15;;;;;;;16.78;70.05;101025.09;4918814;29;20067;-61
2021/09/28 09:46:18;;;;;;;4.20;1.92;;;;;;;16.80;72.03;101027.63;4937754;28;20054;-60
2021/09/28 09:49:06;;;;;;;8.10;2.08;;;;;;;16.92;70.27;101029.88;4930025;29;20059;-62
2021/09/28 09:51:52;;;;;;;7.70;2.25;;;;;;;17.05;69.01;101025.81;4918470;29;20078;-61
2021/09/28 09:54:40;;;;;;;5.63;1.98;;;;;;;17.06;68.52;101028.38;4925838;29;20059;-60
2021/09/28 09:57:26;;;;;;;7.95;2.50;;;;;;;17.00;67.63;101031.75;4931209;29;20063;-62
2021/09/28 10:00:13;;;;;;;8.70;2.33;;;;;;;16.93;69.27;101039.72;4925029;29;20058;-61
2021/09/28 10:02:58;;;;;;;10.98;2.45;;;;;;;17.23;68.16;101031.97;4933960;29;20133;-62
2021/09/28 10:05:46;;;;;;;9.65;1.80;;;;;;;17.49;65.23;101032.63;4931630;29;20268;-61
2021/09/28 10:08:32;;;;;;;4.22;1.50;;;;;;;17.25;61.73;101038.91;4945891;29;20098;-60
2021/09/28 10:11:18;;;;;;;5.55;1.63;;;;;;;17.39;65.05;101036.53;4941416;29;20138;-61
2021/09/28 10:14:06;;;;;;;7.50;2.17;;;;;;;17.59;66.06;101039.75;4932506;29;20384;-61
2021/09/28 10:16:54;;;;;;;8.73;1.92;;;;;;;17.81;62.43;101039.94;4936028;29;20054;-62
2021/09/28 10:19:48;;;;;;;7.78;1.80;;;;;;;17.76;62.44;101033.34;4933845;29;20531;-61
2021/09/28 10:22:48;;;;;;;4.63;1.75;;;;;;;17.54;63.02;101032.16;4940718;29;20059;-63
2021/09/28 10:25:35;;;;;;;6.47;1.98;;;;;;;17.59;64.33;101026.19;4939924;29;20066;-62
2021/09/28 10:28:38;;;;;;;5.22;1.83;;;;;;;17.67;63.27;101029.75;4940034;29;20129;-62
2021/09/28 10:31:34;;;;;;;12.85;2.05;;;;;;;17.43;62.08;101027.06;4932289;29;20180;-58
2021/09/28 10:34:19;;;;;;;4.72;1.70;;;;;;;17.36;62.51;101040.44;4937678;28;20058;-60
2021/09/28 10:37:04;;;;;;;8.67;2.33;;;;;;;17.34;62.98;101036.22;4941235;29;20058;-65
2021/09/28 10:39:49;;;;;;;6.60;1.70;;;;;;;17.72;62.12;101030.09;4935774;29;20054;-61
2021/09/28 10:42:48;;;;;;;8.00;1.70;;;;;;;17.91;62.73;101026.19;4932704;29;20070;-61
2021/09/28 10:45:45;;;;;;;13.95;3.25;;;;;;;17.71;63.72;101028.41;4940607;28;20054;-59
2021/09/28 10:48:35;;;;;;;5.88;1.77;;;;;;;17.50;61.84;101038.91;4932265;29;20562;-61
2021/09/28 10:51:22;;;;;;;9.52;1.80;;;;;;;17.38;62.38;101030.25;4935253;29;20074;-60
2021/09/28 10:54:07;;;;;;;6.28;1.95;;;;;;;17.73;62.96;101034.53;4924916;29;20428;-57
2021/09/28 10:56:53;;;;;;;8.93;2.08;;;;;;;17.92;63.74;101025.16;4930657;29;20107;-62
2021/09/28 10:59:59;;;;;;;4.55;1.40;;;;;;;17.88;61.00;101031.09;4935879;28;20063;-61
2021/09/28 11:02:56;;;;;;;4.05;1.52;;;;;;;18.11;60.45;101034.78;4932280;29;20146;-61
2021/09/28 11:05:43;;;;;;;5.78;1.20;;;;;;;17.89;58.51;101022.81;4930228;29;20529;-62
2021/09/28 11:08:34;;;;;;;3.08;1.30;;;;;;;17.96;59.01;101028.38;4936976;29;20168;-60
2021/09/28 11:11:22;;;;;;;4.82;1.10;;;;;;;18.18;55.56;101019.50;4918501;29;20062;-61
2021/09/28 11:14:10;;;;;;;7.07;2.17;;;;;;;18.23;59.43;101027.97;4937591;29;20078;-61
2021/09/28 11:16:57;;;;;;;3.90;1.83;;;;;;;18.36;57.81;101022.84;4931306;29;20146;-62
2021/09/28 11:19:42;;;;;;;5.68;1.52;;;;;;;17.94;57.12;101009.53;4926695;29;20055;-62
2021/09/28 11:22:29;;;;;;;5.32;1.25;;;;;;;18.54;56.60;101016.28;4928008;29;20067;-63
2021/09/28 11:25:15;;;;;;;5.82;1.50;;;;;;;18.81;55.55;101007.66;4941743;28;20130;-61
2021/09/28 11:28:01;;;;;;;4.80;1.35;;;;;;;19.36;55.15;101009.31;4937747;29;20062;-62
2021/09/28 11:30:51;;;;;;;;;;;;;;;19.44;53.13;101001.09;4941837;29;20059;-60
2021/09/28 11:33:38;;;;;;;9.35;1.52;;;;;;;19.46;54.68;100999.03;4930593;29;19938;-63
2021/09/28 11:36:23;;;;;;;6.40;1.75;;;;;;;19.69;54.55;100999.03;4938829;29;20090;-61
2021/09/28 11:39:16;;;;;;;8.10;1.60;;;;;;;19.27;54.20;100994.09;4939035;29;20138;-62
2021/09/28 11:42:01;;;;;;;5.28;1.45;;;;;;;19.06;55.08;100996.63;4935504;29;20054;-61
2021/09/28 11:44:50;;;;;;;5.38;1.50;;;;;;;18.86;54.49;100997.13;4933399;29;20058;-63
2021/09/28 11:47:40;;;;;;;5.53;1.27;;;;;;;19.41;54.42;100998.72;4933693;29;20047;-61
2021/09/28 11:50:26;;;;;;;6.03;1.42;;;;;;;19.13;52.42;100992.16;4927671;29;20110;-65
2021/09/28 11:53:13;;;;;;;;;;;;;;;19.04;53.02;100990.53;4943176;29;20255;-62
2021/09/28 11:55:59;;;;;;;4.50;1.23;;;;;;;18.79;54.77;100984.41;4934025;29;19929;-62
2021/09/28 11:58:44;;;;;;;7.32;1.30;;;;;;;18.83;54.60;100991.19;4933475;29;20054;-62
2021/09/28 12:01:30;;;;;;;8.75;1.70;;;;;;;18.54;55.32;100991.81;4933622;29;20187;-64
2021/09/28 12:04:20;;;;;;;5.45;1.50;;;;;;;18.28;55.05;101003.84;4929119;29;20078;-63
2021/09/28 12:07:09;;;;;;;3.20;1.00;;;;;;;18.18;55.49;100997.75;4933401;29;20466;-61
2021/09/28 12:09:57;;;;;;;2.92;1.02;;;;;;;18.10;55.61;100997.78;4934424;29;20059;-61
2021/09/28 12:12:43;;;;;;;3.05;1.20;;;;;;;18.19;55.90;100996.72;4936201;29;20208;-60
2021/09/28 12:15:28;;;;;;;5.47;1.10;;;;;;;18.32;57.45;100993.44;4923609;29;20071;-62
2021/09/28 12:18:17;;;;;;;4.25;1.40;;;;;;;18.43;55.99;100984.91;4926336;29;20517;-60
2021/09/28 12:21:21;;;;;;;8.95;1.48;;;;;;;18.65;55.41;100983.31;4923111;29;20088;-59
2021/09/28 12:24:18;;;;;;;5.93;1.65;;;;;;;18.97;58.19;100977.66;4929678;29;20104;-61
2021/09/28 12:27:06;;;;;;;10.10;1.83;;;;;;;19.17;54.58;100977.16;4934488;29;20054;-63
2021/09/28 12:29:55;;;;;;;5.05;1.40;;;;;;;19.49;54.77;100979.59;4933259;29;20536;-61
2021/09/28 12:32:40;;;;;;;3.85;1.23;;;;;;;19.71;54.89;100979.78;4934818;29;20053;-62
2021/09/28 12:35:29;;;;;;;4.68;1.50;;;;;;;19.93;54.26;100975.28;4932132;29;20062;-62
2021/09/28 12:38:14;;;;;;;6.35;1.25;;;;;;;20.04;51.64;100975.66;4933086;29;20071;-62
2021/09/28 12:41:04;;;;;;;4.25;1.15;;;;;;;20.10;49.64;100980.34;4928058;29;20476;-62
2021/09/28 12:43:49;;;;;;;3.65;1.00;;;;;;;19.93;48.66;100973.41;4933082;29;20059;-61
2021/09/28 12:46:35;;;;;;;3.30;0.90;;;;;;;19.98;48.13;100970.09;4932951;29;20168;-63
2021/09/28 12:49:28;;;;;;;4.38;0.90;;;;;;;20.09;46.46;100970.47;4928925;29;20066;-61
2021/09/28 12:52:13;;;;;;;2.58;0.77;;;;;;;19.79;47.17;100968.81;4926148;29;20061;-63
2021/09/28 12:54:58;;;;;;;3.27;0.60;;;;;;;19.68;47.10;100961.94;4941104;29;20062;-62
2021/09/28 12:57:44;;;;;;;4.87;0.90;;;;;;;19.72;48.72;100954.22;4934086;29;20771;-62
2021/09/28 13:00:29;;;;;;;3.85;1.08;;;;;;;19.69;51.91;100960.91;4948692;29;20302;-61
2021/09/28 13:03:20;;;;;;;5.13;1.03;;;;;;;19.63;48.51;100971.66;4949616;29;20110;-66